createdAt,value
2022-09-30T00:00:26.487Z,7.40
2022-09-30T00:03:28.921Z,7.30
2022-09-30T00:06:31.285Z,7.23
2022-09-30T00:09:33.008Z,7.67
2022-09-30T00:12:34.966Z,6.87
2022-09-30T00:15:36.579Z,7.53
2022-09-30T00:18:39.543Z,9.40
2022-09-30T00:21:41.773Z,9.40
2022-09-30T00:24:43.355Z,8.57
2022-09-30T00:27:45.113Z,9.33
2022-09-30T00:30:48.161Z,8.43
2022-09-30T00:34:06.735Z,8.50
2022-09-30T00:37:08.960Z,8.43
2022-09-30T00:40:11.529Z,7.50
2022-09-30T00:43:53.361Z,8.43
2022-09-30T00:46:55.887Z,8.50
2022-09-30T00:50:03.440Z,8.33
2022-09-30T00:53:18.573Z,8.90
2022-09-30T00:56:24.636Z,7.87
2022-09-30T00:59:33.210Z,8.63
2022-09-30T01:02:34.988Z,8.27
2022-09-30T01:05:36.605Z,8.30
2022-09-30T01:08:40.213Z,7.80
2022-09-30T01:11:41.818Z,7.23
2022-09-30T01:14:45.505Z,8.07
2022-09-30T01:18:12.155Z,7.40
2022-09-30T01:22:02.955Z,6.70
2022-09-30T01:25:39.346Z,6.97
2022-09-30T01:28:53.605Z,7.30
2022-09-30T01:32:31.949Z,7.63
2022-09-30T01:36:01.469Z,9.80
2022-09-30T01:39:35.190Z,7.70
2022-09-30T01:42:42.421Z,6.93
2022-09-30T01:45:51.485Z,7.10
2022-09-30T01:48:59.023Z,6.63
2022-09-30T01:52:15.703Z,6.77
2022-09-30T01:55:41.986Z,7.20
2022-09-30T01:58:57.312Z,7.80
2022-09-30T02:02:19.534Z,7.27
2022-09-30T02:05:36.947Z,7.77
2022-09-30T02:08:41.988Z,8.30
2022-09-30T02:11:43.726Z,7.07
2022-09-30T02:14:55.863Z,7.53
2022-09-30T02:18:03.552Z,7.10
2022-09-30T02:21:07.468Z,7.73
2022-09-30T02:24:14.056Z,8.57
2022-09-30T02:27:28.493Z,6.77
2022-09-30T02:30:30.499Z,7.00
2022-09-30T02:33:38.516Z,6.90
2022-09-30T02:36:44.562Z,6.63
2022-09-30T02:40:11.901Z,7.33
2022-09-30T02:43:15.668Z,6.93
2022-09-30T02:46:43.519Z,6.93
2022-09-30T02:49:55.187Z,7.70
2022-09-30T02:53:07.701Z,7.40
2022-09-30T02:56:39.595Z,7.03
2022-09-30T02:59:41.829Z,6.93
2022-09-30T03:02:43.499Z,7.80
2022-09-30T03:05:45.500Z,7.93
2022-09-30T03:08:48.255Z,8.03
2022-09-30T03:11:51.416Z,7.50
2022-09-30T03:14:55.957Z,7.50
2022-09-30T03:18:28.729Z,7.93
2022-09-30T03:21:57.337Z,8.13
2022-09-30T03:25:35.859Z,8.33
2022-09-30T03:29:01.429Z,8.87
2022-09-30T03:32:18.462Z,8.43
2022-09-30T03:35:43.321Z,7.87
2022-09-30T03:39:17.795Z,8.50
2022-09-30T03:42:26.953Z,7.90
2022-09-30T03:45:39.131Z,8.33
2022-09-30T03:48:42.974Z,8.10
2022-09-30T03:51:44.689Z,8.70
2022-09-30T03:54:52.716Z,8.80
2022-09-30T03:57:54.444Z,8.60
2022-09-30T04:00:57.239Z,9.00
2022-09-30T04:03:58.902Z,8.20
2022-09-30T04:07:00.566Z,8.40
2022-09-30T04:10:02.525Z,8.90
2022-09-30T04:13:04.157Z,8.77
2022-09-30T04:16:08.024Z,8.43
2022-09-30T04:19:09.649Z,8.40
2022-09-30T04:22:11.237Z,8.40
2022-09-30T04:25:12.899Z,8.83
2022-09-30T04:28:14.509Z,8.60
2022-09-30T04:31:21.317Z,8.10
2022-09-30T04:34:23.094Z,8.50
2022-09-30T04:37:24.699Z,9.00
2022-09-30T04:40:26.908Z,9.33
2022-09-30T04:43:28.668Z,8.97
2022-09-30T04:46:30.340Z,9.80
2022-09-30T04:49:32.137Z,9.30
2022-09-30T04:52:33.986Z,9.37
2022-09-30T04:55:35.669Z,9.83
2022-09-30T04:58:37.793Z,9.63
2022-09-30T05:01:42.386Z,9.60
2022-09-30T05:04:44.451Z,9.80
2022-09-30T05:07:46.033Z,10.07
2022-09-30T05:10:57.721Z,9.70
2022-09-30T05:13:59.391Z,9.10
2022-09-30T05:17:01.976Z,9.93
2022-09-30T05:20:06.692Z,10.37
2022-09-30T05:23:08.330Z,9.47
2022-09-30T05:26:12.553Z,11.10
2022-09-30T05:29:14.565Z,10.13
2022-09-30T05:32:16.609Z,10.60
2022-09-30T05:35:18.293Z,9.40
2022-09-30T05:38:19.905Z,10.00
2022-09-30T05:41:21.997Z,9.90
2022-09-30T05:44:23.559Z,9.60
2022-09-30T05:47:25.291Z,9.63
2022-09-30T05:50:26.975Z,9.03
2022-09-30T05:53:31.896Z,9.90
2022-09-30T05:56:38.135Z,9.83
2022-09-30T05:59:39.876Z,10.30
2022-09-30T06:02:41.851Z,9.97
2022-09-30T06:05:45.698Z,10.20
2022-09-30T06:08:47.409Z,9.30
2022-09-30T06:11:49.147Z,8.40
2022-09-30T06:14:50.743Z,9.17
2022-09-30T06:17:54.070Z,9.10
2022-09-30T06:21:00.834Z,9.83
2022-09-30T06:24:02.641Z,10.40
2022-09-30T06:27:04.430Z,10.17
2022-09-30T06:30:06.934Z,8.60
2022-09-30T06:33:08.575Z,9.50
2022-09-30T06:36:10.513Z,8.93
2022-09-30T06:39:16.743Z,9.07
2022-09-30T06:42:19.005Z,10.13
2022-09-30T06:45:31.617Z,8.77
2022-09-30T06:48:38.693Z,8.87
2022-09-30T06:51:40.694Z,9.30
2022-09-30T06:54:42.769Z,8.70
2022-09-30T06:57:46.394Z,9.47
2022-09-30T07:00:57.708Z,9.20
2022-09-30T07:03:59.388Z,8.60
2022-09-30T07:07:01.085Z,8.77
2022-09-30T07:10:04.318Z,9.03
2022-09-30T07:13:06.743Z,7.90
2022-09-30T07:16:08.740Z,8.73
2022-09-30T07:19:11.394Z,7.27
2022-09-30T07:22:29.454Z,7.83
2022-09-30T07:25:31.083Z,7.97
2022-09-30T07:28:35.549Z,7.80
2022-09-30T07:31:37.314Z,8.03
2022-09-30T07:34:43.029Z,8.50
2022-09-30T07:37:44.793Z,7.90
2022-09-30T07:41:06.702Z,7.70
2022-09-30T07:44:14.236Z,7.57
2022-09-30T07:47:16.117Z,7.70
2022-09-30T07:50:17.753Z,7.13
2022-09-30T07:53:20.983Z,7.27
2022-09-30T07:56:23.753Z,6.47
2022-09-30T07:59:28.673Z,7.17
2022-09-30T08:02:30.288Z,6.50
2022-09-30T08:05:31.988Z,6.70
2022-09-30T08:08:33.789Z,7.60
2022-09-30T08:11:36.897Z,6.20
2022-09-30T08:14:38.877Z,6.90
2022-09-30T08:17:40.494Z,7.80
2022-09-30T08:20:42.291Z,7.30
2022-09-30T08:23:44.256Z,7.77
2022-09-30T08:26:48.683Z,6.87
2022-09-30T08:29:56.611Z,6.60
2022-09-30T08:32:59.901Z,7.50
2022-09-30T08:36:12.633Z,7.80
2022-09-30T08:39:14.350Z,7.07
2022-09-30T08:42:51.453Z,7.10
2022-09-30T08:46:44.708Z,7.10
2022-09-30T08:50:04.015Z,9.50
2022-09-30T08:53:12.973Z,9.87
2022-09-30T08:56:28.035Z,7.10
2022-09-30T08:59:40.593Z,7.20
2022-09-30T09:02:48.979Z,6.10
2022-09-30T09:06:03.130Z,7.10
2022-09-30T09:09:23.004Z,6.50
2022-09-30T09:12:40.929Z,7.50
2022-09-30T09:15:59.285Z,7.60
2022-09-30T09:19:07.547Z,8.20
2022-09-30T09:22:10.906Z,8.60
2022-09-30T09:25:18.459Z,8.40
2022-09-30T09:28:36.799Z,7.80
2022-09-30T09:31:38.575Z,8.77
2022-09-30T09:34:41.469Z,8.80
2022-09-30T09:38:29.832Z,8.80
2022-09-30T09:41:43.572Z,8.43
2022-09-30T09:45:02.119Z,8.80
2022-09-30T09:48:09.096Z,7.67
2022-09-30T09:51:34.391Z,8.00
2022-09-30T09:54:42.220Z,8.97
2022-09-30T09:57:43.907Z,8.50
2022-09-30T10:00:45.672Z,8.47
2022-09-30T10:03:51.229Z,7.97
2022-09-30T10:06:52.903Z,7.40
2022-09-30T10:10:23.447Z,7.57
2022-09-30T10:13:30.185Z,7.50
2022-09-30T10:16:37.559Z,7.57
2022-09-30T10:19:41.956Z,7.43
2022-09-30T10:22:43.906Z,7.30
2022-09-30T10:26:15.775Z,8.43
2022-09-30T10:29:31.950Z,8.00
2022-09-30T10:32:33.754Z,8.10
2022-09-30T10:35:35.354Z,7.60
2022-09-30T10:38:45.708Z,8.43
2022-09-30T10:41:47.488Z,7.60
2022-09-30T10:44:56.275Z,6.60
2022-09-30T10:48:00.527Z,8.40
2022-09-30T10:51:02.805Z,7.40
2022-09-30T10:54:06.165Z,6.63
2022-09-30T10:57:25.317Z,6.60
2022-09-30T11:00:30.050Z,8.43
2022-09-30T11:04:03.556Z,7.40
2022-09-30T11:07:40.736Z,6.80
2022-09-30T11:11:10.538Z,6.23
2022-09-30T11:14:23.173Z,7.50
2022-09-30T11:17:33.697Z,5.97
2022-09-30T11:20:53.722Z,6.40
2022-09-30T11:23:55.307Z,6.30
2022-09-30T11:27:15.098Z,5.60
2022-09-30T11:30:32.830Z,5.90
2022-09-30T11:33:51.515Z,5.30
2022-09-30T11:36:56.119Z,5.37
2022-09-30T11:40:20.295Z,5.60
2022-09-30T11:43:38.261Z,5.40
2022-09-30T11:47:10.532Z,5.43
2022-09-30T11:50:19.605Z,5.03
2022-09-30T11:53:38.849Z,5.97
2022-09-30T11:57:18.898Z,6.70
2022-09-30T12:00:21.115Z,6.40
2022-09-30T12:03:29.514Z,6.87
2022-09-30T12:06:43.400Z,6.13
2022-09-30T12:09:50.377Z,5.00
2022-09-30T12:13:00.405Z,2.97
2022-09-30T12:16:04.657Z,2.47
2022-09-30T12:19:25.635Z,4.87
2022-09-30T12:22:33.342Z,4.00
2022-09-30T12:25:41.682Z,3.60
2022-09-30T12:29:15.355Z,3.10
2022-09-30T12:32:40.663Z,3.03
2022-09-30T12:35:57.584Z,3.30
2022-09-30T12:39:25.145Z,3.03
2022-09-30T12:43:03.646Z,3.60
2022-09-30T12:46:21.584Z,4.47
2022-09-30T12:49:26.407Z,4.80
2022-09-30T12:52:33.643Z,3.60
2022-09-30T12:55:41.581Z,2.93
2022-09-30T12:58:54.563Z,2.90
2022-09-30T13:01:57.873Z,3.20
2022-09-30T13:05:27.421Z,3.50
2022-09-30T13:08:43.063Z,2.93
2022-09-30T13:12:13.550Z,3.90
2022-09-30T13:15:37.209Z,3.50
2022-09-30T13:18:40.801Z,3.40
2022-09-30T13:21:45.258Z,2.77
2022-09-30T13:25:07.566Z,3.13
2022-09-30T13:28:27.962Z,2.73
2022-09-30T13:31:32.305Z,3.53
2022-09-30T13:34:48.558Z,2.90
2022-09-30T13:38:13.775Z,3.10
2022-09-30T13:41:23.568Z,3.10
2022-09-30T13:44:55.282Z,2.87
2022-09-30T13:48:21.602Z,4.13
2022-09-30T13:51:25.978Z,3.80
2022-09-30T13:54:36.461Z,4.00
2022-09-30T13:57:49.296Z,3.40
2022-09-30T14:00:59.392Z,3.27
2022-09-30T14:04:46.038Z,3.70
2022-09-30T14:08:12.343Z,3.83
2022-09-30T14:12:14.737Z,3.60
2022-09-30T14:15:40.214Z,3.37
2022-09-30T14:19:14.856Z,3.20
2022-09-30T14:22:19.111Z,4.10
2022-09-30T14:25:23.814Z,3.40
2022-09-30T14:28:40.345Z,3.73
2022-09-30T14:31:46.533Z,3.40
2022-09-30T14:34:49.197Z,2.80
2022-09-30T14:37:54.572Z,3.90
2022-09-30T14:41:06.294Z,3.60
2022-09-30T14:44:17.097Z,3.73
2022-09-30T14:47:19.353Z,3.73
2022-09-30T14:50:25.998Z,3.50
2022-09-30T14:53:35.787Z,3.50
2022-09-30T14:56:38.120Z,3.50
2022-09-30T14:59:43.730Z,2.80
2022-09-30T15:02:46.667Z,3.03
2022-09-30T15:05:48.259Z,3.87
2022-09-30T15:08:52.410Z,3.40
2022-09-30T15:11:54.529Z,3.20
2022-09-30T15:15:00.354Z,3.27
2022-09-30T15:18:24.824Z,3.50
2022-09-30T15:21:30.280Z,3.60
2022-09-30T15:24:34.242Z,3.13
2022-09-30T15:27:36.859Z,3.10
2022-09-30T15:30:38.796Z,3.20
2022-09-30T15:33:40.408Z,3.17
2022-09-30T15:36:42.487Z,3.07
2022-09-30T15:40:06.878Z,3.53
2022-09-30T15:43:11.231Z,2.90
2022-09-30T15:46:35.219Z,2.83
2022-09-30T15:49:48.841Z,3.33
2022-09-30T15:52:51.349Z,3.47
2022-09-30T15:55:57.863Z,3.07
2022-09-30T15:59:02.408Z,3.03
2022-09-30T16:02:04.016Z,3.17
2022-09-30T16:05:06.590Z,3.00
2022-09-30T16:08:12.475Z,2.53
2022-09-30T16:11:40.987Z,2.90
2022-09-30T16:14:44.020Z,3.23
2022-09-30T16:17:49.539Z,2.80
2022-09-30T16:21:05.224Z,2.83
2022-09-30T16:24:30.182Z,2.90
2022-09-30T16:27:32.760Z,3.37
2022-09-30T16:30:34.497Z,3.30
2022-09-30T16:33:40.685Z,2.90
2022-09-30T16:36:42.266Z,3.00
2022-09-30T16:39:43.875Z,3.20
2022-09-30T16:42:46.896Z,4.30
2022-09-30T16:45:48.772Z,4.40
2022-09-30T16:48:50.483Z,4.40
2022-09-30T16:51:52.261Z,3.73
2022-09-30T16:54:53.927Z,3.90
2022-09-30T16:58:00.006Z,3.47
2022-09-30T17:01:04.135Z,3.77
2022-09-30T17:04:06.307Z,3.50
2022-09-30T17:07:11.896Z,3.70
2022-09-30T17:10:20.144Z,5.23
2022-09-30T17:13:21.711Z,4.73
2022-09-30T17:16:24.383Z,4.50
2022-09-30T17:19:29.960Z,3.93
2022-09-30T17:22:31.521Z,4.60
2022-09-30T17:25:33.210Z,3.27
2022-09-30T17:28:36.120Z,4.07
2022-09-30T17:31:37.918Z,3.70
2022-09-30T17:34:41.186Z,4.20
2022-09-30T17:37:46.232Z,4.67
2022-09-30T17:41:07.077Z,4.83
2022-09-30T17:44:08.615Z,4.80
2022-09-30T17:47:10.272Z,6.93
2022-09-30T17:50:12.807Z,7.37
2022-09-30T17:53:18.894Z,5.70
2022-09-30T17:56:22.691Z,5.23
2022-09-30T17:59:26.729Z,4.63
2022-09-30T18:02:29.259Z,6.10
2022-09-30T18:05:32.944Z,5.80
2022-09-30T18:08:34.784Z,6.07
2022-09-30T18:11:42.768Z,6.33
2022-09-30T18:14:46.272Z,5.43
2022-09-30T18:17:48.104Z,6.23
2022-09-30T18:20:50.427Z,6.07
2022-09-30T18:23:53.469Z,6.17
2022-09-30T18:26:55.062Z,5.93
2022-09-30T18:29:56.705Z,6.67
2022-09-30T18:32:59.050Z,7.60
2022-09-30T18:36:01.547Z,6.93
2022-09-30T18:39:03.485Z,7.20
2022-09-30T18:42:05.218Z,7.07
2022-09-30T18:45:08.266Z,6.77
2022-09-30T18:48:10.258Z,7.00
2022-09-30T18:51:11.879Z,6.07
2022-09-30T18:54:15.757Z,5.70
2022-09-30T18:57:17.410Z,6.60
2022-09-30T19:00:20.510Z,7.23
2022-09-30T19:03:22.266Z,7.03
2022-09-30T19:06:23.850Z,7.50
2022-09-30T19:09:26.600Z,8.20
2022-09-30T19:12:38.905Z,7.77
2022-09-30T19:15:40.467Z,7.20
2022-09-30T19:18:42.238Z,7.27
2022-09-30T19:21:44.707Z,6.17
2022-09-30T19:24:46.341Z,5.90
2022-09-30T19:27:49.385Z,6.77
2022-09-30T19:30:51.147Z,6.83
2022-09-30T19:33:56.781Z,6.50
2022-09-30T19:36:59.766Z,7.10
2022-09-30T19:40:15.147Z,7.20
2022-09-30T19:43:22.773Z,6.83
2022-09-30T19:46:24.988Z,7.20
2022-09-30T19:49:26.597Z,7.30
2022-09-30T19:52:28.560Z,7.93
2022-09-30T19:55:33.481Z,7.80
2022-09-30T19:58:39.520Z,7.87
2022-09-30T20:01:41.191Z,7.60
2022-09-30T20:04:44.121Z,7.70
2022-09-30T20:07:45.759Z,7.33
2022-09-30T20:10:47.389Z,7.80
2022-09-30T20:13:50.960Z,7.87
2022-09-30T20:16:54.160Z,7.63
2022-09-30T20:20:19.091Z,8.33
2022-09-30T20:23:22.197Z,8.97
2022-09-30T20:26:23.995Z,8.30
2022-09-30T20:29:26.812Z,7.83
2022-09-30T20:32:30.669Z,8.20
2022-09-30T20:35:36.534Z,9.00
2022-09-30T20:38:39.650Z,8.80
2022-09-30T20:41:41.786Z,8.43
2022-09-30T20:44:45.258Z,8.47
2022-09-30T20:47:47.417Z,8.00
2022-09-30T20:50:49.194Z,8.47
2022-09-30T20:53:52.143Z,8.10
2022-09-30T20:57:08.431Z,9.70
2022-09-30T21:00:10.704Z,8.80
2022-09-30T21:03:14.254Z,9.37
2022-09-30T21:06:20.839Z,10.40
2022-09-30T21:09:22.462Z,9.00
2022-09-30T21:12:24.178Z,9.47
2022-09-30T21:15:26.004Z,10.03
2022-09-30T21:18:28.043Z,9.30
2022-09-30T21:21:30.103Z,10.10
2022-09-30T21:24:31.901Z,11.03
2022-09-30T21:27:34.297Z,9.60
2022-09-30T21:30:42.521Z,9.83
2022-09-30T21:33:44.792Z,10.17
2022-09-30T21:36:49.115Z,9.20
2022-09-30T21:39:50.785Z,11.00
2022-09-30T21:42:52.454Z,9.77
2022-09-30T21:46:02.042Z,10.60
2022-09-30T21:49:06.064Z,9.70
2022-09-30T21:52:09.106Z,10.13
2022-09-30T21:55:13.645Z,10.27
2022-09-30T21:58:15.629Z,10.80
2022-09-30T22:01:17.243Z,11.90
2022-09-30T22:04:19.578Z,10.63
2022-09-30T22:07:23.992Z,11.57
2022-09-30T22:10:25.677Z,13.43
2022-09-30T22:13:27.286Z,12.17
2022-09-30T22:16:31.966Z,11.13
2022-09-30T22:19:33.611Z,11.63
2022-09-30T22:22:35.402Z,11.57
2022-09-30T22:25:37.135Z,11.53
2022-09-30T22:28:39.591Z,12.00
2022-09-30T22:31:41.298Z,12.50
2022-09-30T22:35:01.770Z,12.40
2022-09-30T22:38:15.943Z,10.70
2022-09-30T22:41:17.896Z,11.40
2022-09-30T22:44:21.479Z,12.17
2022-09-30T22:47:23.109Z,13.07
2022-09-30T22:50:28.708Z,13.57
2022-09-30T22:53:30.364Z,13.37
2022-09-30T22:56:32.225Z,13.03
2022-09-30T22:59:33.860Z,12.70
2022-09-30T23:02:35.644Z,13.00
2022-09-30T23:05:37.533Z,13.77
2022-09-30T23:08:42.473Z,13.53
2022-09-30T23:11:45.953Z,13.37
2022-09-30T23:14:47.860Z,13.50
2022-09-30T23:17:50.012Z,13.87
2022-09-30T23:20:59.434Z,13.83
2022-09-30T23:24:01.898Z,13.37
2022-09-30T23:27:03.570Z,12.87
2022-09-30T23:30:05.661Z,12.87
2022-09-30T23:33:09.746Z,13.97
2022-09-30T23:36:11.396Z,13.20
2022-09-30T23:39:18.284Z,13.40
2022-09-30T23:42:20.122Z,12.77
2022-09-30T23:45:21.714Z,12.80
2022-09-30T23:48:23.748Z,13.33
2022-09-30T23:51:25.458Z,13.40
2022-09-30T23:54:27.035Z,13.43
2022-09-30T23:57:28.706Z,13.30
